Time;durP1;ratioP1;P1;durP2;ratioP2;P2;SDS_P1;SDS_P2;PMS_P1;PMS_P2;Temp;Humidity;BMP_temperature;BMP_pressure;BME280_temperature;BME280_humidity;BME280_pressure;Samples;Min_cycle;Max_cycle;Signal;HPM_P1;HPM_P2
2021/02/03 00:00:18;;;;;;;1.9;0.9;;;;;;;9.88;100;94322.38;;;;
2021/02/03 00:01:23;;;;;;;1.9;0.9;;;;;;;9.88;100;94322.38;;;;
2021/02/03 00:02:23;;;;;;;1.9;0.9;;;;;;;9.88;100;94322.38;;;;
2021/02/03 00:03:24;;;;;;;1.9;0.9;;;;;;;9.88;100;94322.38;;;;
2021/02/03 00:04:26;;;;;;;1.9;0.9;;;;;;;9.88;100;94322.38;;;;
2021/02/03 00:05:27;;;;;;;1.9;0.9;;;;;;;9.88;100;94322.38;;;;
2021/02/03 00:06:27;;;;;;;1.9;0.9;;;;;;;9.88;100;94322.38;;;;
2021/02/03 00:07:28;;;;;;;1.1;0.8;;;;;;;9.93;100;94330.52;;;;
2021/02/03 00:08:28;;;;;;;1.1;0.8;;;;;;;9.93;100;94330.52;;;;
2021/02/03 00:09:29;;;;;;;1.1;0.8;;;;;;;9.93;100;94330.52;;;;
2021/02/03 00:10:29;;;;;;;1.1;0.8;;;;;;;9.93;100;94330.52;;;;
2021/02/03 00:11:30;;;;;;;1.1;0.8;;;;;;;9.93;100;94330.52;;;;
2021/02/03 00:12:30;;;;;;;1.1;0.8;;;;;;;9.93;100;94330.52;;;;
2021/02/03 00:13:31;;;;;;;1.1;0.8;;;;;;;9.93;100;94330.52;;;;
2021/02/03 00:14:32;;;;;;;1.1;0.8;;;;;;;9.93;100;94330.52;;;;
2021/02/03 00:15:32;;;;;;;1.1;0.8;;;;;;;9.93;100;94330.52;;;;
2021/02/03 00:16:35;;;;;;;1.1;0.8;;;;;;;9.93;100;94330.52;;;;
2021/02/03 00:17:36;;;;;;;1.1;0.8;;;;;;;9.93;100;94330.52;;;;
2021/02/03 00:18:38;;;;;;;1.85;0.9;;;;;;;9.95;100;94340.92;;;;
2021/02/03 00:19:39;;;;;;;1.85;0.9;;;;;;;9.95;100;94340.92;;;;
2021/02/03 00:20:40;;;;;;;1.85;0.9;;;;;;;9.95;100;94340.92;;;;
2021/02/03 00:21:41;;;;;;;1.85;0.9;;;;;;;9.95;100;94340.92;;;;
2021/02/03 00:22:42;;;;;;;1.85;0.9;;;;;;;9.95;100;94340.92;;;;
2021/02/03 00:23:44;;;;;;;1.85;0.9;;;;;;;9.95;100;94340.92;;;;
2021/02/03 00:24:44;;;;;;;1.85;0.9;;;;;;;9.95;100;94340.92;;;;
2021/02/03 00:25:45;;;;;;;1.85;0.9;;;;;;;9.95;100;94340.92;;;;
2021/02/03 00:26:46;;;;;;;1.85;0.9;;;;;;;9.95;100;94340.92;;;;
2021/02/03 00:27:47;;;;;;;1.85;0.9;;;;;;;9.95;100;94340.92;;;;
2021/02/03 00:28:47;;;;;;;1.1;0.8;;;;;;;10.02;100;94341.13;;;;
2021/02/03 00:29:48;;;;;;;1.1;0.8;;;;;;;10.02;100;94341.13;;;;
2021/02/03 00:30:48;;;;;;;1.1;0.8;;;;;;;10.02;100;94341.13;;;;
2021/02/03 00:31:49;;;;;;;1.1;0.8;;;;;;;10.02;100;94341.13;;;;
2021/02/03 00:32:49;;;;;;;1.1;0.8;;;;;;;10.02;100;94341.13;;;;
2021/02/03 00:33:50;;;;;;;1.1;0.8;;;;;;;10.02;100;94341.13;;;;
2021/02/03 00:34:51;;;;;;;1.1;0.8;;;;;;;10.02;100;94341.13;;;;
2021/02/03 00:35:51;;;;;;;1.1;0.8;;;;;;;10.02;100;94341.13;;;;
2021/02/03 00:36:55;;;;;;;1.1;0.8;;;;;;;10.02;100;94341.13;;;;
2021/02/03 00:37:56;;;;;;;1.1;0.8;;;;;;;10.02;100;94341.13;;;;
2021/02/03 00:38:57;;;;;;;1.1;0.8;;;;;;;10.02;100;94341.13;;;;
2021/02/03 00:39:58;;;;;;;1.15;0.9;;;;;;;10.11;100;94357.7;;;;
2021/02/03 00:40:58;;;;;;;1.15;0.9;;;;;;;10.11;100;94357.7;;;;
2021/02/03 00:42:00;;;;;;;1.15;0.9;;;;;;;10.11;100;94357.7;;;;
2021/02/03 00:43:01;;;;;;;1.15;0.9;;;;;;;10.11;100;94357.7;;;;
2021/02/03 00:44:02;;;;;;;1.15;0.9;;;;;;;10.11;100;94357.7;;;;
2021/02/03 00:45:03;;;;;;;1.15;0.9;;;;;;;10.11;100;94357.7;;;;
2021/02/03 00:46:07;;;;;;;1.15;0.9;;;;;;;10.11;100;94357.7;;;;
2021/02/03 00:47:07;;;;;;;1.15;0.9;;;;;;;10.11;100;94357.7;;;;
2021/02/03 00:48:08;;;;;;;1.15;0.9;;;;;;;10.11;100;94357.7;;;;
2021/02/03 00:49:09;;;;;;;1.15;0.9;;;;;;;10.11;100;94357.7;;;;
2021/02/03 00:50:09;;;;;;;1.5;1;;;;;;;10.02;100;94359.62;;;;
2021/02/03 00:51:11;;;;;;;1.5;1;;;;;;;10.02;100;94359.62;;;;
2021/02/03 00:52:11;;;;;;;1.5;1;;;;;;;10.02;100;94359.62;;;;
2021/02/03 00:53:18;;;;;;;1.5;1;;;;;;;10.02;100;94359.62;;;;
2021/02/03 00:54:25;;;;;;;1.5;1;;;;;;;10.02;100;94359.62;;;;
2021/02/03 00:55:29;;;;;;;1.5;1;;;;;;;10.02;100;94359.62;;;;
2021/02/03 00:56:39;;;;;;;1.5;1;;;;;;;10.02;100;94359.62;;;;
2021/02/03 00:57:41;;;;;;;1.5;1;;;;;;;10.02;100;94359.62;;;;
2021/02/03 00:58:42;;;;;;;1.5;1;;;;;;;10.02;100;94359.62;;;;
2021/02/03 00:59:57;;;;;;;1.5;1;;;;;;;10.02;100;94359.62;;;;
2021/02/03 01:00:59;;;;;;;1.6;1;;;;;;;9.85;100;94368.73;;;;
2021/02/03 01:02:06;;;;;;;1.6;1;;;;;;;9.85;100;94368.73;;;;
2021/02/03 01:03:12;;;;;;;1.6;1;;;;;;;9.85;100;94368.73;;;;
2021/02/03 01:04:16;;;;;;;1.6;1;;;;;;;9.85;100;94368.73;;;;
2021/02/03 01:05:26;;;;;;;1.6;1;;;;;;;9.85;100;94368.73;;;;
2021/02/03 01:06:29;;;;;;;1.6;1;;;;;;;9.85;100;94368.73;;;;
2021/02/03 01:07:46;;;;;;;1.6;1;;;;;;;9.85;100;94368.73;;;;
2021/02/03 01:08:58;;;;;;;1.6;1;;;;;;;9.85;100;94368.73;;;;
2021/02/03 01:10:06;;;;;;;1.6;1;;;;;;;9.85;100;94368.73;;;;
2021/02/03 01:11:20;;;;;;;0.9;0.9;;;;;;;9.68;100;94394.01;;;;
2021/02/03 01:12:22;;;;;;;0.9;0.9;;;;;;;9.68;100;94394.01;;;;
2021/02/03 01:13:27;;;;;;;0.9;0.9;;;;;;;9.68;100;94394.01;;;;
2021/02/03 01:14:42;;;;;;;0.9;0.9;;;;;;;9.68;100;94394.01;;;;
2021/02/03 01:15:57;;;;;;;0.9;0.9;;;;;;;9.68;100;94394.01;;;;
2021/02/03 01:17:05;;;;;;;0.9;0.9;;;;;;;9.68;100;94394.01;;;;
2021/02/03 01:18:14;;;;;;;0.9;0.9;;;;;;;9.68;100;94394.01;;;;
2021/02/03 01:19:23;;;;;;;0.9;0.9;;;;;;;9.68;100;94394.01;;;;
2021/02/03 01:20:28;;;;;;;0.9;0.9;;;;;;;9.68;100;94394.01;;;;
2021/02/03 01:21:54;;;;;;;0.9;0.9;;;;;;;9.68;100;94394.01;;;;
2021/02/03 01:22:58;;;;;;;1;0.9;;;;;;;9.57;100;94381.09;;;;
2021/02/03 01:24:03;;;;;;;1;0.9;;;;;;;9.57;100;94381.09;;;;
2021/02/03 01:25:11;;;;;;;1;0.9;;;;;;;9.57;100;94381.09;;;;
2021/02/03 01:26:22;;;;;;;1;0.9;;;;;;;9.57;100;94381.09;;;;
2021/02/03 01:27:29;;;;;;;1;0.9;;;;;;;9.57;100;94381.09;;;;
2021/02/03 01:28:32;;;;;;;1;0.9;;;;;;;9.57;100;94381.09;;;;
2021/02/03 01:29:33;;;;;;;1;0.9;;;;;;;9.57;100;94381.09;;;;
2021/02/03 01:30:38;;;;;;;1;0.9;;;;;;;9.57;100;94381.09;;;;
2021/02/03 01:31:39;;;;;;;1;0.9;;;;;;;9.57;100;94381.09;;;;
2021/02/03 01:32:46;;;;;;;1.05;0.95;;;;;;;9.42;100;94376.75;;;;
2021/02/03 01:33:52;;;;;;;1.05;0.95;;;;;;;9.42;100;94376.75;;;;
2021/02/03 01:35:04;;;;;;;1.05;0.95;;;;;;;9.42;100;94376.75;;;;
2021/02/03 01:36:11;;;;;;;1.05;0.95;;;;;;;9.42;100;94376.75;;;;
2021/02/03 01:37:16;;;;;;;1.05;0.95;;;;;;;9.42;100;94376.75;;;;
2021/02/03 01:38:24;;;;;;;1.05;0.95;;;;;;;9.42;100;94376.75;;;;
2021/02/03 01:39:33;;;;;;;1.05;0.95;;;;;;;9.42;100;94376.75;;;;
2021/02/03 01:40:36;;;;;;;1.05;0.95;;;;;;;9.42;100;94376.75;;;;
2021/02/03 01:41:57;;;;;;;1.05;0.95;;;;;;;9.42;100;94376.75;;;;
2021/02/03 01:44:25;;;;;;;1.5;0.9;;;;;;;9.3;100;94384.25;;;;
2021/02/03 01:46:03;;;;;;;1.5;0.9;;;;;;;9.3;100;94384.25;;;;
2021/02/03 01:47:17;;;;;;;1.5;0.9;;;;;;;9.3;100;94384.25;;;;
2021/02/03 01:48:57;;;;;;;1.5;0.9;;;;;;;9.3;100;94384.25;;;;
2021/02/03 01:50:31;;;;;;;1.5;0.9;;;;;;;9.3;100;94384.25;;;;
2021/02/03 01:51:37;;;;;;;1.5;0.9;;;;;;;9.3;100;94384.25;;;;
2021/02/03 01:52:42;;;;;;;1.5;0.9;;;;;;;9.3;100;94384.25;;;;
2021/02/03 01:53:51;;;;;;;1.5;0.9;;;;;;;9.3;100;94384.25;;;;
2021/02/03 01:55:03;;;;;;;1.2;1;;;;;;;9.18;100;94371.41;;;;
2021/02/03 01:56:19;;;;;;;1.2;1;;;;;;;9.18;100;94371.41;;;;
2021/02/03 01:57:34;;;;;;;1.2;1;;;;;;;9.18;100;94371.41;;;;
2021/02/03 01:58:48;;;;;;;1.2;1;;;;;;;9.18;100;94371.41;;;;
2021/02/03 02:00:00;;;;;;;1.2;1;;;;;;;9.18;100;94371.41;;;;
2021/02/03 02:01:12;;;;;;;1.2;1;;;;;;;9.18;100;94371.41;;;;
2021/02/03 02:02:21;;;;;;;1.2;1;;;;;;;9.18;100;94371.41;;;;
2021/02/03 02:03:25;;;;;;;1.2;1;;;;;;;9.18;100;94371.41;;;;
2021/02/03 02:04:36;;;;;;;1.2;1;;;;;;;9.18;100;94371.41;;;;
2021/02/03 02:05:48;;;;;;;1;1;;;;;;;9.04;100;94354;;;;
2021/02/03 02:06:53;;;;;;;1;1;;;;;;;9.04;100;94354;;;;
2021/02/03 02:07:57;;;;;;;1;1;;;;;;;9.04;100;94354;;;;
2021/02/03 02:09:06;;;;;;;1;1;;;;;;;9.04;100;94354;;;;
2021/02/03 02:10:15;;;;;;;1;1;;;;;;;9.04;100;94354;;;;
2021/02/03 02:11:23;;;;;;;1;1;;;;;;;9.04;100;94354;;;;
2021/02/03 02:12:31;;;;;;;1;1;;;;;;;9.04;100;94354;;;;
2021/02/03 02:13:36;;;;;;;1;1;;;;;;;9.04;100;94354;;;;
2021/02/03 02:14:47;;;;;;;1;1;;;;;;;9.04;100;94354;;;;
2021/02/03 02:15:56;;;;;;;0.8;0.8;;;;;;;8.87;100;94369.25;;;;
2021/02/03 02:17:00;;;;;;;0.8;0.8;;;;;;;8.87;100;94369.25;;;;
2021/02/03 02:18:07;;;;;;;0.8;0.8;;;;;;;8.87;100;94369.25;;;;
2021/02/03 02:19:30;;;;;;;0.8;0.8;;;;;;;8.87;100;94369.25;;;;
2021/02/03 02:21:02;;;;;;;0.8;0.8;;;;;;;8.87;100;94369.25;;;;
2021/02/03 02:22:10;;;;;;;0.8;0.8;;;;;;;8.87;100;94369.25;;;;
2021/02/03 02:23:59;;;;;;;0.8;0.8;;;;;;;8.87;100;94369.25;;;;
2021/02/03 02:25:39;;;;;;;0.8;0.8;;;;;;;8.87;100;94369.25;;;;
2021/02/03 02:27:08;;;;;;;0.9;0.9;;;;;;;8.76;100;94393.44;;;;
2021/02/03 02:28:12;;;;;;;0.9;0.9;;;;;;;8.76;100;94393.44;;;;
2021/02/03 02:29:15;;;;;;;0.9;0.9;;;;;;;8.76;100;94393.44;;;;
2021/02/03 02:30:17;;;;;;;0.9;0.9;;;;;;;8.76;100;94393.44;;;;
2021/02/03 02:31:18;;;;;;;0.9;0.9;;;;;;;8.76;100;94393.44;;;;
2021/02/03 02:32:38;;;;;;;0.9;0.9;;;;;;;8.76;100;94393.44;;;;
2021/02/03 02:33:53;;;;;;;0.9;0.9;;;;;;;8.76;100;94393.44;;;;
2021/02/03 02:35:11;;;;;;;0.9;0.9;;;;;;;8.76;100;94393.44;;;;
2021/02/03 02:36:30;;;;;;;0.9;0.9;;;;;;;8.76;100;94393.44;;;;
2021/02/03 02:37:40;;;;;;;0.8;0.8;;;;;;;8.7;100;94385.55;;;;
2021/02/03 02:39:06;;;;;;;0.8;0.8;;;;;;;8.7;100;94385.55;;;;
2021/02/03 02:40:22;;;;;;;0.8;0.8;;;;;;;8.7;100;94385.55;;;;
2021/02/03 02:41:34;;;;;;;0.8;0.8;;;;;;;8.7;100;94385.55;;;;
2021/02/03 02:42:53;;;;;;;0.8;0.8;;;;;;;8.7;100;94385.55;;;;
2021/02/03 02:44:07;;;;;;;0.8;0.8;;;;;;;8.7;100;94385.55;;;;
2021/02/03 02:45:23;;;;;;;0.8;0.8;;;;;;;8.7;100;94385.55;;;;
2021/02/03 02:46:32;;;;;;;0.8;0.8;;;;;;;8.7;100;94385.55;;;;
2021/02/03 02:47:41;;;;;;;0.8;0.7;;;;;;;8.61;100;94377.2;;;;
2021/02/03 02:49:02;;;;;;;0.8;0.7;;;;;;;8.61;100;94377.2;;;;
2021/02/03 02:50:21;;;;;;;0.8;0.7;;;;;;;8.61;100;94377.2;;;;
2021/02/03 02:51:40;;;;;;;0.8;0.7;;;;;;;8.61;100;94377.2;;;;
2021/02/03 02:52:57;;;;;;;0.8;0.7;;;;;;;8.61;100;94377.2;;;;
2021/02/03 02:54:18;;;;;;;0.8;0.7;;;;;;;8.61;100;94377.2;;;;
2021/02/03 02:55:37;;;;;;;0.8;0.7;;;;;;;8.61;100;94377.2;;;;
2021/02/03 02:56:49;;;;;;;0.8;0.7;;;;;;;8.61;100;94377.2;;;;
2021/02/03 02:57:58;;;;;;;0.8;0.7;;;;;;;8.61;100;94377.2;;;;
2021/02/03 02:59:03;;;;;;;1.2;0.75;;;;;;;8.54;100;94376.03;;;;
2021/02/03 03:00:11;;;;;;;1.2;0.75;;;;;;;8.54;100;94376.03;;;;
2021/02/03 03:01:28;;;;;;;1.2;0.75;;;;;;;8.54;100;94376.03;;;;
2021/02/03 03:02:37;;;;;;;1.2;0.75;;;;;;;8.54;100;94376.03;;;;
2021/02/03 03:04:21;;;;;;;1.2;0.75;;;;;;;8.54;100;94376.03;;;;
2021/02/03 03:05:32;;;;;;;1.2;0.75;;;;;;;8.54;100;94376.03;;;;
2021/02/03 03:06:39;;;;;;;1.2;0.75;;;;;;;8.54;100;94376.03;;;;
2021/02/03 03:07:57;;;;;;;1.2;0.75;;;;;;;8.54;100;94376.03;;;;
2021/02/03 03:09:06;;;;;;;0.9;0.6;;;;;;;8.47;100;94370.39;;;;
2021/02/03 03:10:20;;;;;;;0.9;0.6;;;;;;;8.47;100;94370.39;;;;
2021/02/03 03:12:05;;;;;;;0.9;0.6;;;;;;;8.47;100;94370.39;;;;
2021/02/03 03:13:13;;;;;;;0.9;0.6;;;;;;;8.47;100;94370.39;;;;
2021/02/03 03:14:25;;;;;;;0.9;0.6;;;;;;;8.47;100;94370.39;;;;
2021/02/03 03:15:41;;;;;;;0.9;0.6;;;;;;;8.47;100;94370.39;;;;
2021/02/03 03:17:00;;;;;;;0.9;0.6;;;;;;;8.47;100;94370.39;;;;
2021/02/03 03:18:20;;;;;;;0.9;0.6;;;;;;;8.47;100;94370.39;;;;
2021/02/03 03:19:34;;;;;;;0.8;0.7;;;;;;;8.42;100;94365.86;;;;
2021/02/03 03:20:49;;;;;;;0.8;0.7;;;;;;;8.42;100;94365.86;;;;
2021/02/03 03:22:00;;;;;;;0.8;0.7;;;;;;;8.42;100;94365.86;;;;
2021/02/03 03:23:09;;;;;;;0.8;0.7;;;;;;;8.42;100;94365.86;;;;
2021/02/03 03:24:21;;;;;;;0.8;0.7;;;;;;;8.42;100;94365.86;;;;
2021/02/03 03:25:30;;;;;;;0.8;0.7;;;;;;;8.42;100;94365.86;;;;
2021/02/03 03:26:40;;;;;;;0.8;0.7;;;;;;;8.42;100;94365.86;;;;
2021/02/03 03:27:48;;;;;;;0.8;0.7;;;;;;;8.42;100;94365.86;;;;
2021/02/03 03:28:55;;;;;;;0.8;0.7;;;;;;;8.42;100;94365.86;;;;
2021/02/03 03:30:15;;;;;;;0.7;0.7;;;;;;;8.38;100;94363.78;;;;
2021/02/03 03:31:24;;;;;;;0.7;0.7;;;;;;;8.38;100;94363.78;;;;
2021/02/03 03:33:34;;;;;;;0.7;0.7;;;;;;;8.38;100;94363.78;;;;
2021/02/03 03:35:00;;;;;;;0.7;0.7;;;;;;;8.38;100;94363.78;;;;
2021/02/03 03:36:31;;;;;;;0.7;0.7;;;;;;;8.38;100;94363.78;;;;
2021/02/03 03:37:52;;;;;;;0.7;0.7;;;;;;;8.38;100;94363.78;;;;
2021/02/03 03:39:07;;;;;;;0.7;0.7;;;;;;;8.38;100;94363.78;;;;
2021/02/03 03:40:26;;;;;;;0.7;0.7;;;;;;;8.38;100;94363.78;;;;
2021/02/03 03:41:38;;;;;;;1;0.65;;;;;;;8.42;100;94368.17;;;;
2021/02/03 03:42:44;;;;;;;1;0.65;;;;;;;8.42;100;94368.17;;;;
2021/02/03 03:43:55;;;;;;;1;0.65;;;;;;;8.42;100;94368.17;;;;
2021/02/03 03:45:06;;;;;;;1;0.65;;;;;;;8.42;100;94368.17;;;;
2021/02/03 03:46:18;;;;;;;1;0.65;;;;;;;8.42;100;94368.17;;;;
2021/02/03 03:47:30;;;;;;;1;0.65;;;;;;;8.42;100;94368.17;;;;
2021/02/03 03:48:37;;;;;;;1;0.65;;;;;;;8.42;100;94368.17;;;;
2021/02/03 03:49:49;;;;;;;1;0.65;;;;;;;8.42;100;94368.17;;;;
2021/02/03 03:50:59;;;;;;;1;0.65;;;;;;;8.42;100;94368.17;;;;
2021/02/03 03:52:11;;;;;;;0.55;0.55;;;;;;;8.44;100;94363.23;;;;
2021/02/03 03:53:19;;;;;;;0.55;0.55;;;;;;;8.44;100;94363.23;;;;
2021/02/03 03:54:29;;;;;;;0.55;0.55;;;;;;;8.44;100;94363.23;;;;
2021/02/03 03:55:47;;;;;;;0.55;0.55;;;;;;;8.44;100;94363.23;;;;
2021/02/03 03:56:55;;;;;;;0.55;0.55;;;;;;;8.44;100;94363.23;;;;
2021/02/03 03:58:06;;;;;;;0.55;0.55;;;;;;;8.44;100;94363.23;;;;
2021/02/03 03:59:14;;;;;;;0.55;0.55;;;;;;;8.44;100;94363.23;;;;
2021/02/03 04:00:19;;;;;;;0.55;0.55;;;;;;;8.44;100;94363.23;;;;
2021/02/03 04:01:29;;;;;;;0.55;0.55;;;;;;;8.44;100;94363.23;;;;
2021/02/03 04:02:36;;;;;;;0.65;0.45;;;;;;;8.46;100;94356.67;;;;
2021/02/03 04:03:42;;;;;;;0.65;0.45;;;;;;;8.46;100;94356.67;;;;
2021/02/03 04:04:48;;;;;;;0.65;0.45;;;;;;;8.46;100;94356.67;;;;
2021/02/03 04:05:51;;;;;;;0.65;0.45;;;;;;;8.46;100;94356.67;;;;
2021/02/03 04:06:57;;;;;;;0.65;0.45;;;;;;;8.46;100;94356.67;;;;
2021/02/03 04:08:02;;;;;;;0.65;0.45;;;;;;;8.46;100;94356.67;;;;
2021/02/03 04:09:09;;;;;;;0.65;0.45;;;;;;;8.46;100;94356.67;;;;
2021/02/03 04:10:19;;;;;;;0.65;0.45;;;;;;;8.46;100;94356.67;;;;
2021/02/03 04:11:24;;;;;;;0.65;0.45;;;;;;;8.46;100;94356.67;;;;
2021/02/03 04:12:38;;;;;;;0.65;0.45;;;;;;;8.46;100;94356.67;;;;
2021/02/03 04:13:46;;;;;;;0.7;0.6;;;;;;;8.47;100;94336.91;;;;
2021/02/03 04:14:56;;;;;;;0.7;0.6;;;;;;;8.47;100;94336.91;;;;
2021/02/03 04:16:04;;;;;;;0.7;0.6;;;;;;;8.47;100;94336.91;;;;
2021/02/03 04:17:16;;;;;;;0.7;0.6;;;;;;;8.47;100;94336.91;;;;
2021/02/03 04:18:49;;;;;;;0.7;0.6;;;;;;;8.47;100;94336.91;;;;
2021/02/03 04:20:00;;;;;;;0.7;0.6;;;;;;;8.47;100;94336.91;;;;
2021/02/03 04:21:06;;;;;;;0.7;0.6;;;;;;;8.47;100;94336.91;;;;
2021/02/03 04:22:10;;;;;;;0.7;0.6;;;;;;;8.47;100;94336.91;;;;
2021/02/03 04:23:14;;;;;;;0.7;0.6;;;;;;;8.47;100;94336.91;;;;
2021/02/03 04:24:30;;;;;;;0.7;0.7;;;;;;;8.47;100;94327.34;;;;
2021/02/03 04:25:45;;;;;;;0.7;0.7;;;;;;;8.47;100;94327.34;;;;
2021/02/03 04:26:55;;;;;;;0.7;0.7;;;;;;;8.47;100;94327.34;;;;
2021/02/03 04:28:37;;;;;;;0.7;0.7;;;;;;;8.47;100;94327.34;;;;
2021/02/03 04:29:53;;;;;;;0.7;0.7;;;;;;;8.47;100;94327.34;;;;
2021/02/03 04:31:05;;;;;;;0.7;0.7;;;;;;;8.47;100;94327.34;;;;
2021/02/03 04:32:18;;;;;;;0.7;0.7;;;;;;;8.47;100;94327.34;;;;
2021/02/03 04:33:38;;;;;;;0.7;0.7;;;;;;;8.47;100;94327.34;;;;
2021/02/03 04:35:17;;;;;;;1;0.5;;;;;;;8.42;100;94307.65;;;;
2021/02/03 04:36:29;;;;;;;1;0.5;;;;;;;8.42;100;94307.65;;;;
2021/02/03 04:37:38;;;;;;;1;0.5;;;;;;;8.42;100;94307.65;;;;
2021/02/03 04:39:05;;;;;;;1;0.5;;;;;;;8.42;100;94307.65;;;;
2021/02/03 04:40:20;;;;;;;1;0.5;;;;;;;8.42;100;94307.65;;;;
2021/02/03 04:41:30;;;;;;;1;0.5;;;;;;;8.42;100;94307.65;;;;
2021/02/03 04:43:26;;;;;;;1;0.5;;;;;;;8.42;100;94307.65;;;;
2021/02/03 04:44:54;;;;;;;0.4;0.4;;;;;;;8.34;100;94295.95;;;;
2021/02/03 04:46:25;;;;;;;0.4;0.4;;;;;;;8.34;100;94295.95;;;;
2021/02/03 04:48:01;;;;;;;0.4;0.4;;;;;;;8.34;100;94295.95;;;;
2021/02/03 04:53:45;;;;;;;0.4;0.4;;;;;;;8.34;100;94295.95;;;;
2021/02/03 04:55:17;;;;;;;0.4;0.4;;;;;;;8.34;100;94295.95;;;;
2021/02/03 04:56:44;;;;;;;1.75;0.8;;;;;;;8.19;100;94277.26;;;;
2021/02/03 05:02:42;;;;;;;1.75;0.8;;;;;;;8.19;100;94277.26;;;;
2021/02/03 05:04:15;;;;;;;1.75;0.8;;;;;;;8.19;100;94277.26;;;;
2021/02/03 05:05:57;;;;;;;1.75;0.8;;;;;;;8.19;100;94277.26;;;;
2021/02/03 05:07:31;;;;;;;1.2;0.9;;;;;;;7.98;100;94260.13;;;;
2021/02/03 05:13:03;;;;;;;1.2;0.9;;;;;;;7.98;100;94260.13;;;;
2021/02/03 05:14:33;;;;;;;1.2;0.9;;;;;;;7.98;100;94260.13;;;;
2021/02/03 05:16:10;;;;;;;1.2;0.9;;;;;;;7.98;100;94260.13;;;;
2021/02/03 05:17:56;;;;;;;2;1;;;;;;;7.81;100;94247.63;;;;
2021/02/03 05:19:33;;;;;;;2;1;;;;;;;7.81;100;94247.63;;;;
2021/02/03 05:25:05;;;;;;;2;1;;;;;;;7.81;100;94247.63;;;;
2021/02/03 05:26:39;;;;;;;2;1;;;;;;;7.81;100;94247.63;;;;
2021/02/03 05:28:13;;;;;;;1;0.9;;;;;;;7.68;100;94228.61;;;;
2021/02/03 05:29:43;;;;;;;1;0.9;;;;;;;7.68;100;94228.61;;;;
2021/02/03 05:35:17;;;;;;;1;0.9;;;;;;;7.68;100;94228.61;;;;
2021/02/03 05:36:56;;;;;;;1;0.9;;;;;;;7.68;100;94228.61;;;;
2021/02/03 05:38:54;;;;;;;1.7;1.1;;;;;;;7.56;100;94228.29;;;;
2021/02/03 05:48:18;;;;;;;1.7;1.1;;;;;;;7.56;100;94228.29;;;;
2021/02/03 05:53:58;;;;;;;1.3;1.2;;;;;;;7.49;100;94221.44;;;;
2021/02/03 05:59:22;;;;;;;1.55;1.3;;;;;;;7.41;100;94208.28;;;;
2021/02/03 06:00:44;;;;;;;1.55;1.3;;;;;;;7.41;100;94208.28;;;;
2021/02/03 06:02:46;;;;;;;1.55;1.3;;;;;;;7.41;100;94208.28;;;;
2021/02/03 06:04:56;;;;;;;1.55;1.3;;;;;;;7.41;100;94208.28;;;;
2021/02/03 06:08:34;;;;;;;1.55;1.3;;;;;;;7.41;100;94208.28;;;;
2021/02/03 06:17:54;;;;;;;3.9;1.4;;;;;;;7.32;100;94229.08;;;;
2021/02/03 06:19:29;;;;;;;3.9;1.4;;;;;;;7.32;100;94229.08;;;;
2021/02/03 06:25:21;;;;;;;3.6;1.65;;;;;;;7.25;100;94218.48;;;;
2021/02/03 06:26:50;;;;;;;3.6;1.65;;;;;;;7.25;100;94218.48;;;;
2021/02/03 06:28:40;;;;;;;3.6;1.65;;;;;;;7.25;100;94218.48;;;;
2021/02/03 06:38:03;;;;;;;4.45;1.85;;;;;;;7.19;100;94219.46;;;;
2021/02/03 06:39:40;;;;;;;4.45;1.85;;;;;;;7.19;100;94219.46;;;;
2021/02/03 06:41:22;;;;;;;4.45;1.85;;;;;;;7.19;100;94219.46;;;;
2021/02/03 06:47:15;;;;;;;15.2;3.1;;;;;;;7.18;100;94213.92;;;;
2021/02/03 06:48:50;;;;;;;15.2;3.1;;;;;;;7.18;100;94213.92;;;;
2021/02/03 06:50:22;;;;;;;15.2;3.1;;;;;;;7.18;100;94213.92;;;;
2021/02/03 06:52:09;;;;;;;15.2;3.1;;;;;;;7.18;100;94213.92;;;;
2021/02/03 06:53:48;;;;;;;6.950001;2.35;;;;;;;7.14;100;94209.95;;;;
2021/02/03 06:59:15;;;;;;;6.950001;2.35;;;;;;;7.14;100;94209.95;;;;
2021/02/03 07:02:08;;;;;;;6.950001;2.35;;;;;;;7.14;100;94209.95;;;;
2021/02/03 07:04:07;;;;;;;3.3;1.9;;;;;;;7.24;100;94201.68;;;;
2021/02/03 07:06:41;;;;;;;3.3;1.9;;;;;;;7.24;100;94201.68;;;;
2021/02/03 07:09:03;;;;;;;3.3;1.9;;;;;;;7.24;100;94201.68;;;;
2021/02/03 07:11:27;;;;;;;3.3;1.9;;;;;;;7.24;100;94201.68;;;;
2021/02/03 07:14:27;;;;;;;8.65;2.2;;;;;;;7.28;100;94187.14;;;;
2021/02/03 07:16:18;;;;;;;8.65;2.2;;;;;;;7.28;100;94187.14;;;;
2021/02/03 07:21:46;;;;;;;8.65;2.2;;;;;;;7.28;100;94187.14;;;;
2021/02/03 07:23:34;;;;;;;8.65;2.2;;;;;;;7.28;100;94187.14;;;;
2021/02/03 07:26:09;;;;;;;8.450001;3.05;;;;;;;7.36;100;94175.16;;;;
2021/02/03 07:31:41;;;;;;;8.450001;3.05;;;;;;;7.36;100;94175.16;;;;
2021/02/03 07:33:13;;;;;;;8.450001;3.05;;;;;;;7.36;100;94175.16;;;;
2021/02/03 07:38:27;;;;;;;3.3;2.2;;;;;;;7.49;100;94170.42;;;;
2021/02/03 07:47:51;;;;;;;4.15;2.9;;;;;;;7.65;100;94169.08;;;;
2021/02/03 07:49:06;;;;;;;4.15;2.9;;;;;;;7.65;100;94169.08;;;;
2021/02/03 07:50:35;;;;;;;4.15;2.9;;;;;;;7.65;100;94169.08;;;;
2021/02/03 07:51:47;;;;;;;4.15;2.9;;;;;;;7.65;100;94169.08;;;;
2021/02/03 07:53:00;;;;;;;4.15;2.9;;;;;;;7.65;100;94169.08;;;;
2021/02/03 07:54:22;;;;;;;4.15;2.9;;;;;;;7.65;100;94169.08;;;;
2021/02/03 07:56:03;;;;;;;4.15;2.9;;;;;;;7.65;100;94169.08;;;;
2021/02/03 07:57:24;;;;;;;3;2.6;;;;;;;7.79;100;94166.47;;;;
2021/02/03 07:58:37;;;;;;;3;2.6;;;;;;;7.79;100;94166.47;;;;
2021/02/03 07:59:53;;;;;;;3;2.6;;;;;;;7.79;100;94166.47;;;;
2021/02/03 08:01:15;;;;;;;3;2.6;;;;;;;7.79;100;94166.47;;;;
2021/02/03 08:02:58;;;;;;;3;2.6;;;;;;;7.79;100;94166.47;;;;
2021/02/03 08:08:15;;;;;;;2.35;2.05;;;;;;;7.9;100;94153.44;;;;
2021/02/03 08:09:59;;;;;;;2.35;2.05;;;;;;;7.9;100;94153.44;;;;
2021/02/03 08:11:23;;;;;;;2.35;2.05;;;;;;;7.9;100;94153.44;;;;
2021/02/03 08:12:54;;;;;;;2.35;2.05;;;;;;;7.9;100;94153.44;;;;
2021/02/03 08:14:14;;;;;;;2.35;2.05;;;;;;;7.9;100;94153.44;;;;
2021/02/03 08:15:42;;;;;;;2.35;2.05;;;;;;;7.9;100;94153.44;;;;
2021/02/03 08:17:06;;;;;;;2.35;2.05;;;;;;;7.9;100;94153.44;;;;
2021/02/03 08:22:33;;;;;;;2.75;2.2;;;;;;;8.02;100;94157.65;;;;
2021/02/03 08:28:01;;;;;;;2.75;2.2;;;;;;;8.02;100;94157.65;;;;
2021/02/03 08:29:08;;;;;;;3.45;2.25;;;;;;;8.19;100;94159.38;;;;
2021/02/03 08:30:28;;;;;;;3.45;2.25;;;;;;;8.19;100;94159.38;;;;
2021/02/03 08:32:13;;;;;;;3.45;2.25;;;;;;;8.19;100;94159.38;;;;
2021/02/03 08:33:40;;;;;;;3.45;2.25;;;;;;;8.19;100;94159.38;;;;
2021/02/03 08:35:40;;;;;;;3.45;2.25;;;;;;;8.19;100;94159.38;;;;
2021/02/03 08:36:59;;;;;;;3.45;2.25;;;;;;;8.19;100;94159.38;;;;
2021/02/03 08:42:59;;;;;;;3.95;2.1;;;;;;;8.24;100;94144.26;;;;
2021/02/03 08:48:32;;;;;;;3.95;2.1;;;;;;;8.24;100;94144.26;;;;
2021/02/03 08:50:02;;;;;;;2.8;1.8;;;;;;;8.21;100;94138.95;;;;
2021/02/03 08:51:26;;;;;;;2.8;1.8;;;;;;;8.21;100;94138.95;;;;
2021/02/03 08:52:52;;;;;;;2.8;1.8;;;;;;;8.21;100;94138.95;;;;
2021/02/03 08:54:21;;;;;;;2.8;1.8;;;;;;;8.21;100;94138.95;;;;
2021/02/03 08:56:43;;;;;;;2.8;1.8;;;;;;;8.21;100;94138.95;;;;
2021/02/03 08:58:11;;;;;;;2.8;1.8;;;;;;;8.21;100;94138.95;;;;
2021/02/03 09:03:57;;;;;;;5.7;2.900001;;;;;;;8.25;100;94094.42;;;;
2021/02/03 09:05:21;;;;;;;5.7;2.900001;;;;;;;8.25;100;94094.42;;;;
2021/02/03 09:06:44;;;;;;;5.7;2.900001;;;;;;;8.25;100;94094.42;;;;
2021/02/03 09:07:50;;;;;;;5.7;2.900001;;;;;;;8.25;100;94094.42;;;;
2021/02/03 09:09:44;;;;;;;5.7;2.900001;;;;;;;8.25;100;94094.42;;;;
2021/02/03 09:11:02;;;;;;;5.7;2.900001;;;;;;;8.25;100;94094.42;;;;
2021/02/03 09:12:26;;;;;;;4.4;2.4;;;;;;;8.4;100;94086.94;;;;
2021/02/03 09:13:46;;;;;;;4.4;2.4;;;;;;;8.4;100;94086.94;;;;
2021/02/03 09:15:00;;;;;;;4.4;2.4;;;;;;;8.4;100;94086.94;;;;
2021/02/03 09:16:13;;;;;;;4.4;2.4;;;;;;;8.4;100;94086.94;;;;
2021/02/03 09:17:31;;;;;;;4.4;2.4;;;;;;;8.4;100;94086.94;;;;
2021/02/03 09:22:49;;;;;;;3.400001;2.3;;;;;;;8.65;100;94067.57;;;;
2021/02/03 09:24:13;;;;;;;3.400001;2.3;;;;;;;8.65;100;94067.57;;;;
2021/02/03 09:25:24;;;;;;;3.400001;2.3;;;;;;;8.65;100;94067.57;;;;
2021/02/03 09:26:31;;;;;;;3.400001;2.3;;;;;;;8.65;100;94067.57;;;;
2021/02/03 09:29:12;;;;;;;3.400001;2.3;;;;;;;8.65;100;94067.57;;;;
2021/02/03 09:30:48;;;;;;;3.400001;2.3;;;;;;;8.65;100;94067.57;;;;
2021/02/03 09:32:01;;;;;;;3.400001;2.3;;;;;;;8.65;100;94067.57;;;;
2021/02/03 09:33:16;;;;;;;5.05;2.8;;;;;;;8.97;100;94037.87;;;;
2021/02/03 09:36:19;;;;;;;5.05;2.8;;;;;;;8.97;100;94037.87;;;;
2021/02/03 09:37:38;;;;;;;5.05;2.8;;;;;;;8.97;100;94037.87;;;;
2021/02/03 09:39:10;;;;;;;5.05;2.8;;;;;;;8.97;100;94037.87;;;;
2021/02/03 09:40:26;;;;;;;5.05;2.8;;;;;;;8.97;100;94037.87;;;;
2021/02/03 09:41:35;;;;;;;5.05;2.8;;;;;;;8.97;100;94037.87;;;;
2021/02/03 09:42:42;;;;;;;5.05;2.8;;;;;;;8.97;100;94037.87;;;;
2021/02/03 09:44:07;;;;;;;5.150001;2.85;;;;;;;9.32;100;94035.03;;;;
2021/02/03 09:45:25;;;;;;;5.150001;2.85;;;;;;;9.32;100;94035.03;;;;
2021/02/03 09:46:36;;;;;;;5.150001;2.85;;;;;;;9.32;100;94035.03;;;;
2021/02/03 09:47:43;;;;;;;5.150001;2.85;;;;;;;9.32;100;94035.03;;;;
2021/02/03 09:48:45;;;;;;;5.150001;2.85;;;;;;;9.32;100;94035.03;;;;
2021/02/03 09:50:14;;;;;;;5.150001;2.85;;;;;;;9.32;100;94035.03;;;;
2021/02/03 09:51:35;;;;;;;5.150001;2.85;;;;;;;9.32;100;94035.03;;;;
2021/02/03 09:53:07;;;;;;;5.150001;2.85;;;;;;;9.32;100;94035.03;;;;
2021/02/03 09:55:04;;;;;;;3.25;2.3;;;;;;;9.41;100;94033.11;;;;
2021/02/03 09:56:21;;;;;;;3.25;2.3;;;;;;;9.41;100;94033.11;;;;
2021/02/03 09:57:56;;;;;;;3.25;2.3;;;;;;;9.41;100;94033.11;;;;
2021/02/03 09:59:51;;;;;;;3.25;2.3;;;;;;;9.41;100;94033.11;;;;
2021/02/03 10:01:03;;;;;;;3.25;2.3;;;;;;;9.41;100;94033.11;;;;
2021/02/03 10:02:36;;;;;;;3.25;2.3;;;;;;;9.41;100;94033.11;;;;
2021/02/03 10:04:01;;;;;;;3.25;2.3;;;;;;;9.41;100;94033.11;;;;
2021/02/03 10:05:16;;;;;;;4.25;1.9;;;;;;;9.48;100;94049.7;;;;
2021/02/03 10:06:41;;;;;;;4.25;1.9;;;;;;;9.48;100;94049.7;;;;
2021/02/03 10:08:02;;;;;;;4.25;1.9;;;;;;;9.48;100;94049.7;;;;
2021/02/03 10:10:32;;;;;;;4.25;1.9;;;;;;;9.48;100;94049.7;;;;
2021/02/03 10:11:46;;;;;;;4.25;1.9;;;;;;;9.48;100;94049.7;;;;
2021/02/03 10:13:22;;;;;;;4.25;1.9;;;;;;;9.48;100;94049.7;;;;
2021/02/03 10:14:27;;;;;;;4.25;1.9;;;;;;;9.48;100;94049.7;;;;
2021/02/03 10:16:07;;;;;;;3.8;2.55;;;;;;;9.55;100;94075.62;;;;
2021/02/03 10:17:56;;;;;;;3.8;2.55;;;;;;;9.55;100;94075.62;;;;
2021/02/03 10:27:10;;;;;;;2.65;1.8;;;;;;;9.6;100;94052.75;;;;